Time;durP1;ratioP1;P1;durP2;ratioP2;P2;SDS_P1;SDS_P2;PMS_P1;PMS_P2;Temp;Humidity;BMP_temperature;BMP_pressure;BME280_temperature;BME280_humidity;BME280_pressure;Samples;Min_cycle;Max_cycle;Signal;HPM_P1;HPM_P2
2023/04/19 00:00:34;;;;;;;4.20;3.07;;;6.30;99.90;;;;;;5039898;28;20251;-69
2023/04/19 00:03:01;;;;;;;3.53;3.23;;;6.40;99.90;;;;;;5034555;28;20183;-68
2023/04/19 00:05:27;;;;;;;4.00;3.10;;;6.40;99.90;;;;;;5046519;28;20629;-68
2023/04/19 00:07:53;;;;;;;7.63;3.90;;;6.40;99.90;;;;;;5041056;28;20451;-70
2023/04/19 00:10:18;;;;;;;5.03;2.63;;;6.40;99.90;;;;;;5043741;28;20523;-68
2023/04/19 00:12:44;;;;;;;4.90;2.97;;;6.40;99.90;;;;;;5042016;28;20183;-69
2023/04/19 00:15:10;;;;;;;6.73;2.97;;;6.50;99.90;;;;;;5043369;28;20199;-70
2023/04/19 00:17:36;;;;;;;3.93;2.50;;;6.40;99.90;;;;;;5040041;28;20182;-68
2023/04/19 00:20:02;;;;;;;3.93;2.30;;;6.40;99.90;;;;;;5039503;28;20203;-69
2023/04/19 00:22:28;;;;;;;7.83;3.23;;;6.40;99.90;;;;;;5046351;28;20421;-70
2023/04/19 00:24:53;;;;;;;4.90;2.77;;;6.40;99.90;;;;;;5041605;28;20424;-70
2023/04/19 00:27:19;;;;;;;7.60;3.10;;;6.40;99.90;;;;;;5051346;28;20171;-69
2023/04/19 00:29:45;;;;;;;2.70;2.23;;;6.40;99.90;;;;;;5042270;28;20257;-71
2023/04/19 00:32:10;;;;;;;3.43;2.40;;;6.40;99.90;;;;;;5043560;28;20175;-69
2023/04/19 00:34:36;;;;;;;3.00;2.80;;;6.40;99.90;;;;;;5039721;28;20176;-69
2023/04/19 00:37:04;;;;;;;2.80;2.30;;;6.40;99.90;;;;;;5043644;28;20171;-69
2023/04/19 00:39:29;;;;;;;2.83;2.43;;;6.30;99.90;;;;;;5038858;28;20203;-72
2023/04/19 00:41:56;;;;;;;5.00;2.50;;;6.40;99.90;;;;;;5041818;28;20464;-69
2023/04/19 00:44:22;;;;;;;5.83;2.70;;;6.30;99.90;;;;;;5044765;28;20167;-69
2023/04/19 00:46:48;;;;;;;3.30;2.93;;;6.30;99.90;;;;;;5041373;28;20962;-69
2023/04/19 00:49:15;;;;;;;3.37;2.70;;;6.30;99.90;;;;;;5048474;28;20500;-69
2023/04/19 00:51:41;;;;;;;2.30;2.10;;;6.30;99.90;;;;;;5041964;28;20420;-68
2023/04/19 00:54:08;;;;;;;3.63;2.87;;;6.30;99.90;;;;;;5042391;28;20417;-69
2023/04/19 00:56:34;;;;;;;3.83;2.43;;;6.30;99.90;;;;;;5041925;28;20461;-68
2023/04/19 00:59:00;;;;;;;3.70;2.40;;;6.20;99.90;;;;;;5041221;28;20421;-68
2023/04/19 01:01:27;;;;;;;6.60;2.63;;;6.10;99.90;;;;;;5047885;28;20515;-68
2023/04/19 01:03:53;;;;;;;4.40;2.70;;;6.10;99.90;;;;;;5039730;28;20417;-69
2023/04/19 01:06:19;;;;;;;3.70;2.33;;;6.00;99.90;;;;;;5042668;28;20521;-68
2023/04/19 01:08:45;;;;;;;2.07;1.90;;;6.00;99.90;;;;;;5041479;28;20270;-68
2023/04/19 01:11:11;;;;;;;4.60;2.57;;;5.90;99.90;;;;;;5047078;28;20433;-67
2023/04/19 01:13:37;;;;;;;4.83;2.87;;;5.90;99.90;;;;;;5044775;28;20178;-69
2023/04/19 01:16:03;;;;;;;3.17;2.67;;;5.80;99.90;;;;;;5038746;28;20454;-68
2023/04/19 01:18:34;;;;;;;3.57;2.17;;;5.80;99.90;;;;;;5043670;28;20221;-67
2023/04/19 01:21:00;;;;;;;5.27;2.83;;;5.70;99.90;;;;;;5041015;28;20199;-69
2023/04/19 01:23:25;;;;;;;2.50;2.30;;;5.70;99.90;;;;;;5054106;28;20504;-69
2023/04/19 01:25:51;;;;;;;2.90;2.60;;;5.60;99.90;;;;;;5043828;28;20532;-69
2023/04/19 01:28:17;;;;;;;3.17;2.30;;;5.60;99.90;;;;;;5047322;28;20216;-69
2023/04/19 01:30:42;;;;;;;4.70;2.80;;;5.50;99.90;;;;;;5047577;28;20917;-67
2023/04/19 01:33:08;;;;;;;3.43;2.70;;;5.50;99.90;;;;;;5024260;28;20187;-68
2023/04/19 01:35:34;;;;;;;7.53;2.63;;;5.40;99.90;;;;;;5048174;28;20282;-68
2023/04/19 01:38:00;;;;;;;3.27;2.97;;;5.40;99.90;;;;;;5044303;28;20224;-68
2023/04/19 01:40:26;;;;;;;3.00;2.07;;;5.30;99.90;;;;;;5054392;28;20206;-69
2023/04/19 01:42:52;;;;;;;7.77;2.47;;;5.30;99.90;;;;;;5044640;28;20428;-68
2023/04/19 01:45:18;;;;;;;3.93;2.40;;;5.30;99.90;;;;;;5050957;28;20182;-68
2023/04/19 01:47:44;;;;;;;2.93;2.53;;;5.30;99.90;;;;;;5052800;28;20705;-68
2023/04/19 01:50:09;;;;;;;2.47;2.23;;;5.20;99.90;;;;;;5023677;28;20494;-69
2023/04/19 01:52:35;;;;;;;3.77;2.20;;;5.20;99.90;;;;;;5030811;28;20203;-69
2023/04/19 01:55:01;;;;;;;6.33;2.87;;;5.10;99.90;;;;;;5041823;28;20640;-68
2023/04/19 01:57:26;;;;;;;3.60;2.40;;;5.10;99.90;;;;;;5047908;28;20168;-69
2023/04/19 01:59:52;;;;;;;2.47;2.13;;;5.10;99.90;;;;;;5051397;28;20268;-69
2023/04/19 02:02:18;;;;;;;2.10;1.90;;;5.10;99.90;;;;;;5041279;28;20175;-69
2023/04/19 02:04:44;;;;;;;4.63;2.83;;;5.00;99.90;;;;;;5048100;28;20414;-69
2023/04/19 02:07:10;;;;;;;3.77;2.40;;;5.00;99.90;;;;;;5043902;28;20215;-69
2023/04/19 02:09:36;;;;;;;3.67;2.67;;;5.00;99.90;;;;;;5053066;28;20195;-68
2023/04/19 02:12:03;;;;;;;2.70;1.90;;;4.90;99.90;;;;;;5044570;28;20406;-68
2023/04/19 02:14:29;;;;;;;4.83;2.83;;;4.90;99.90;;;;;;5041149;28;20406;-68
2023/04/19 02:16:55;;;;;;;2.73;2.33;;;4.90;99.90;;;;;;5046903;28;21030;-68
2023/04/19 02:19:20;;;;;;;3.53;2.37;;;4.90;99.90;;;;;;5045953;28;20263;-67
2023/04/19 02:21:46;;;;;;;3.93;3.30;;;4.80;99.90;;;;;;5047979;28;20175;-68
2023/04/19 02:24:11;;;;;;;3.40;3.10;;;4.80;99.90;;;;;;5044821;28;20644;-68
2023/04/19 02:26:38;;;;;;;4.10;2.70;;;4.80;99.90;;;;;;5049372;28;20171;-68
2023/04/19 02:29:04;;;;;;;3.90;2.47;;;4.70;99.90;;;;;;5041487;28;20183;-68
2023/04/19 02:31:30;;;;;;;2.77;2.37;;;4.70;99.90;;;;;;5052346;28;20943;-69
2023/04/19 02:33:56;;;;;;;7.13;2.53;;;4.60;99.90;;;;;;5050492;28;20513;-69
2023/04/19 02:36:21;;;;;;;3.13;2.83;;;4.60;99.90;;;;;;5040797;28;20658;-68
2023/04/19 02:38:47;;;;;;;4.50;2.60;;;4.60;99.90;;;;;;5049306;28;20531;-69
2023/04/19 02:41:12;;;;;;;2.50;2.30;;;4.60;99.90;;;;;;5040801;28;20194;-69
2023/04/19 02:43:38;;;;;;;3.93;2.63;;;4.50;99.90;;;;;;5040779;28;20178;-68
2023/04/19 02:46:04;;;;;;;3.70;2.77;;;4.50;99.90;;;;;;5043983;28;20187;-67
2023/04/19 02:48:30;;;;;;;4.33;3.03;;;4.40;99.90;;;;;;5048091;28;20223;-69
2023/04/19 02:50:55;;;;;;;4.30;3.20;;;4.40;99.90;;;;;;5043726;28;20216;-67
2023/04/19 02:53:21;;;;;;;3.50;3.20;;;4.40;99.90;;;;;;5046824;28;20191;-69
2023/04/19 02:55:46;;;;;;;2.60;2.20;;;4.40;99.90;;;;;;5043599;28;20195;-69
2023/04/19 02:58:12;;;;;;;2.53;2.33;;;4.30;99.90;;;;;;5044177;28;20699;-68
2023/04/19 03:00:38;;;;;;;2.43;1.90;;;4.30;99.90;;;;;;5041717;28;20199;-68
2023/04/19 03:03:03;;;;;;;4.30;2.97;;;4.20;99.90;;;;;;5043985;28;20201;-68
2023/04/19 03:05:29;;;;;;;2.87;2.43;;;4.10;99.90;;;;;;5045218;28;20179;-69
2023/04/19 03:07:55;;;;;;;2.73;2.47;;;4.10;99.90;;;;;;5042921;28;20672;-68
2023/04/19 03:10:20;;;;;;;3.30;2.30;;;4.10;99.90;;;;;;5045475;28;20257;-67
2023/04/19 03:12:46;;;;;;;2.57;1.93;;;4.10;99.90;;;;;;5041488;28;20187;-68
2023/04/19 03:15:11;;;;;;;4.83;2.53;;;4.00;99.90;;;;;;5043456;28;20286;-68
2023/04/19 03:17:37;;;;;;;3.50;3.20;;;4.00;99.90;;;;;;5043724;28;20172;-68
2023/04/19 03:20:10;;;;;;;4.83;2.40;;;3.80;99.90;;;;;;5050649;28;20214;-68
2023/04/19 03:22:35;;;;;;;3.43;2.53;;;3.80;99.90;;;;;;5042735;28;20657;-68
2023/04/19 03:25:01;;;;;;;5.40;2.60;;;3.80;99.90;;;;;;5043677;28;20449;-70
2023/04/19 03:27:26;;;;;;;9.27;3.10;;;3.70;99.90;;;;;;5046970;28;20180;-68
2023/04/19 03:29:52;;;;;;;3.00;2.40;;;3.70;99.90;;;;;;5048972;28;20205;-68
2023/04/19 03:32:18;;;;;;;4.33;2.43;;;3.70;99.90;;;;;;5051466;28;20228;-68
2023/04/19 03:34:43;;;;;;;4.57;2.40;;;3.70;99.90;;;;;;5045253;28;20193;-68
2023/04/19 03:37:09;;;;;;;2.43;2.23;;;3.60;99.90;;;;;;5043088;28;20171;-68
2023/04/19 03:39:34;;;;;;;3.47;2.70;;;3.60;99.90;;;;;;5043385;28;20594;-67
2023/04/19 03:42:00;;;;;;;4.77;3.03;;;3.50;99.90;;;;;;5042384;28;20217;-68
2023/04/19 03:44:26;;;;;;;3.20;2.20;;;3.50;99.90;;;;;;5042228;28;20574;-68
2023/04/19 03:46:51;;;;;;;6.07;2.53;;;3.50;99.90;;;;;;5041153;28;20211;-68
2023/04/19 03:49:17;;;;;;;4.27;3.70;;;3.50;99.90;;;;;;5046455;28;20175;-68
2023/04/19 03:51:43;;;;;;;5.40;2.30;;;3.50;99.90;;;;;;5042198;28;20211;-68
2023/04/19 03:54:08;;;;;;;4.73;2.57;;;3.50;99.90;;;;;;5042909;28;20554;-68
2023/04/19 03:56:34;;;;;;;6.33;2.83;;;3.50;99.90;;;;;;5042798;28;20734;-68
2023/04/19 03:59:00;;;;;;;3.30;2.40;;;3.40;99.90;;;;;;5048312;28;20622;-67
2023/04/19 04:01:25;;;;;;;5.60;2.43;;;3.50;99.90;;;;;;5042541;28;20191;-69
2023/04/19 04:03:51;;;;;;;5.50;2.20;;;3.50;99.90;;;;;;5049730;28;20316;-68
2023/04/19 04:06:17;;;;;;;2.57;2.37;;;3.50;99.90;;;;;;5046512;28;20201;-67
2023/04/19 04:08:42;;;;;;;3.67;2.50;;;3.50;99.90;;;;;;5042264;28;20186;-69
2023/04/19 04:11:08;;;;;;;2.40;2.00;;;3.40;99.90;;;;;;5042414;28;20209;-68
2023/04/19 04:13:34;;;;;;;3.20;2.90;;;3.40;99.90;;;;;;5042438;28;20425;-67
2023/04/19 04:15:59;;;;;;;7.87;2.37;;;3.50;99.90;;;;;;5050043;28;21047;-68
2023/04/19 04:18:27;;;;;;;4.53;2.60;;;3.40;99.90;;;;;;5047157;28;20177;-68
2023/04/19 04:20:53;;;;;;;3.30;2.43;;;3.40;99.90;;;;;;5024336;28;20248;-68
2023/04/19 04:23:20;;;;;;;3.57;2.33;;;3.30;99.90;;;;;;5042635;28;20421;-68
2023/04/19 04:25:46;;;;;;;2.97;2.50;;;3.30;99.90;;;;;;5042153;28;20193;-69
2023/04/19 04:28:12;;;;;;;4.53;3.10;;;3.40;99.90;;;;;;5045063;28;20509;-68
2023/04/19 04:30:39;;;;;;;2.90;2.57;;;3.40;99.90;;;;;;5042281;28;20512;-68
2023/04/19 04:33:05;;;;;;;4.00;2.30;;;3.40;99.90;;;;;;5039973;28;20539;-69
2023/04/19 04:35:30;;;;;;;4.33;2.67;;;3.40;99.90;;;;;;5042204;28;20452;-68
2023/04/19 04:37:56;;;;;;;5.73;2.53;;;3.50;99.90;;;;;;5040934;28;20175;-68
2023/04/19 04:40:22;;;;;;;5.47;2.50;;;3.50;99.90;;;;;;5046657;28;20190;-68
2023/04/19 04:42:48;;;;;;;2.80;2.00;;;3.50;99.90;;;;;;5044623;28;20175;-66
2023/04/19 04:45:17;;;;;;;4.30;2.63;;;3.50;99.90;;;;;;5038714;28;20175;-67
2023/04/19 04:47:45;;;;;;;2.63;2.20;;;3.50;99.90;;;;;;5046623;28;20425;-67
2023/04/19 04:50:10;;;;;;;3.00;2.40;;;3.50;99.90;;;;;;5044506;28;20932;-67
2023/04/19 04:52:36;;;;;;;2.20;1.87;;;3.60;99.90;;;;;;5050305;28;20417;-67
2023/04/19 04:55:01;;;;;;;3.40;2.30;;;3.60;99.90;;;;;;5037864;28;20184;-67
2023/04/19 04:57:27;;;;;;;4.70;2.97;;;3.60;99.90;;;;;;5038006;28;20176;-68
2023/04/19 04:59:55;;;;;;;5.03;2.70;;;3.70;99.90;;;;;;5044319;28;20230;-68
2023/04/19 05:02:22;;;;;;;3.43;2.10;;;3.70;99.90;;;;;;5040267;28;20631;-69
2023/04/19 05:04:48;;;;;;;6.03;2.57;;;3.80;99.90;;;;;;5039483;28;20439;-69
2023/04/19 05:07:14;;;;;;;2.70;2.07;;;3.80;99.90;;;;;;5043970;28;20505;-68
2023/04/19 05:09:39;;;;;;;4.33;2.40;;;3.90;99.90;;;;;;5047321;28;20306;-67
2023/04/19 05:12:05;;;;;;;3.20;2.50;;;4.00;99.90;;;;;;5041885;28;20171;-69
2023/04/19 05:14:31;;;;;;;8.70;3.17;;;4.00;99.90;;;;;;5044653;28;20254;-69
2023/04/19 05:16:56;;;;;;;3.67;2.37;;;4.10;99.90;;;;;;5038933;28;20868;-68
2023/04/19 05:19:22;;;;;;;4.50;2.60;;;4.10;99.90;;;;;;5032865;28;20559;-67
2023/04/19 05:21:47;;;;;;;4.70;2.50;;;4.20;99.90;;;;;;5046279;28;20171;-69
2023/04/19 05:24:13;;;;;;;3.27;2.97;;;4.30;99.90;;;;;;5041629;28;20225;-67
2023/04/19 05:26:38;;;;;;;2.97;2.70;;;4.30;99.90;;;;;;5047975;28;20183;-68
2023/04/19 05:29:04;;;;;;;2.10;1.90;;;4.40;99.90;;;;;;5033134;28;20190;-69
2023/04/19 05:31:30;;;;;;;6.17;2.50;;;4.50;99.90;;;;;;5042284;28;20710;-68
2023/04/19 05:33:56;;;;;;;3.57;2.53;;;4.60;99.90;;;;;;5046246;28;20182;-67
2023/04/19 05:36:21;;;;;;;3.43;2.00;;;4.70;99.90;;;;;;5043095;28;20518;-69
2023/04/19 05:38:47;;;;;;;3.03;2.50;;;4.90;99.90;;;;;;5048653;28;20262;-68
2023/04/19 05:41:13;;;;;;;4.27;2.30;;;5.00;99.90;;;;;;5037892;28;20283;-68
2023/04/19 05:43:38;;;;;;;2.70;1.90;;;5.20;99.90;;;;;;5038264;28;20213;-67
2023/04/19 05:46:04;;;;;;;5.20;2.73;;;5.30;99.90;;;;;;5038141;28;20222;-69
2023/04/19 05:48:29;;;;;;;9.53;2.60;;;5.70;99.90;;;;;;5043190;28;20187;-69
2023/04/19 05:50:56;;;;;;;3.67;2.57;;;6.10;99.90;;;;;;5040510;28;20224;-68
2023/04/19 05:53:22;;;;;;;3.90;2.30;;;6.50;99.90;;;;;;5044086;28;20582;-69
2023/04/19 05:55:49;;;;;;;4.37;1.67;;;6.90;99.90;;;;;;5042263;28;20457;-70
2023/04/19 05:58:15;;;;;;;3.03;1.97;;;7.50;99.90;;;;;;5044123;28;20175;-69
2023/04/19 06:00:41;;;;;;;1.70;1.47;;;7.80;99.90;;;;;;5046531;28;20441;-69
2023/04/19 06:03:07;;;;;;;2.63;1.80;;;8.20;99.90;;;;;;5042070;28;20179;-68
2023/04/19 06:05:33;;;;;;;3.83;1.83;;;8.60;99.90;;;;;;5041814;28;20483;-69
2023/04/19 06:07:58;;;;;;;2.33;1.23;;;8.70;99.90;;;;;;5049822;28;20185;-68
2023/04/19 06:10:24;;;;;;;2.73;1.60;;;8.70;99.90;;;;;;5045168;28;20711;-69
2023/04/19 06:12:50;;;;;;;2.57;1.50;;;8.70;99.90;;;;;;5043795;28;20185;-68
2023/04/19 06:15:15;;;;;;;3.80;2.00;;;8.90;99.90;;;;;;5044707;28;20221;-70
2023/04/19 06:17:41;;;;;;;5.40;2.27;;;9.30;99.90;;;;;;5044633;28;20182;-69
2023/04/19 06:20:08;;;;;;;3.77;1.90;;;9.40;99.90;;;;;;5051457;28;20201;-68
2023/04/19 06:22:35;;;;;;;1.40;1.30;;;9.70;99.90;;;;;;5048759;28;20171;-69
2023/04/19 06:25:01;;;;;;;1.57;1.47;;;9.90;99.90;;;;;;5050081;28;20885;-69
2023/04/19 06:27:26;;;;;;;3.53;1.57;;;10.10;99.90;;;;;;5044804;28;20424;-69
2023/04/19 06:29:52;;;;;;;2.63;1.80;;;10.60;99.90;;;;;;5044760;28;20297;-70
2023/04/19 06:32:17;;;;;;;5.27;2.70;;;11.20;99.90;;;;;;5051628;28;20179;-69
2023/04/19 06:34:43;;;;;;;2.30;1.30;;;11.00;99.90;;;;;;5043947;28;20175;-71
2023/04/19 06:37:08;;;;;;;2.73;1.57;;;11.00;99.90;;;;;;5043558;28;20542;-70
2023/04/19 06:39:34;;;;;;;1.80;1.40;;;10.60;99.90;;;;;;5048353;28;20278;-70
2023/04/19 06:42:01;;;;;;;2.20;1.50;;;11.30;99.90;;;;;;5042365;28;20173;-69
2023/04/19 06:44:26;;;;;;;5.03;2.67;;;11.30;99.90;;;;;;5044315;28;20215;-70
2023/04/19 06:46:52;;;;;;;4.17;1.50;;;11.50;99.90;;;;;;5042835;28;20434;-70
2023/04/19 06:49:18;;;;;;;3.10;1.60;;;11.80;99.90;;;;;;5033431;28;20170;-69
2023/04/19 06:51:44;;;;;;;1.70;1.30;;;11.30;99.90;;;;;;5024249;28;20550;-69
2023/04/19 06:54:09;;;;;;;1.53;1.17;;;11.60;99.90;;;;;;5043763;28;20178;-68
2023/04/19 06:56:44;;;;;;;4.53;1.63;;;12.10;99.90;;;;;;5037070;28;20549;-68
2023/04/19 06:59:11;;;;;;;3.17;1.67;;;12.50;99.90;;;;;;5026575;28;20183;-68
2023/04/19 07:01:37;;;;;;;1.77;1.40;;;12.70;99.90;;;;;;5040776;28;20802;-68
2023/04/19 07:04:03;;;;;;;4.90;1.73;;;12.90;99.90;;;;;;5039007;28;20422;-68
2023/04/19 07:06:28;;;;;;;3.37;1.80;;;13.10;99.90;;;;;;5036797;28;20480;-68
2023/04/19 07:08:54;;;;;;;1.73;1.50;;;12.90;99.90;;;;;;5030617;28;20253;-67
2023/04/19 07:11:19;;;;;;;2.70;1.50;;;13.30;99.90;;;;;;5037554;28;20191;-68
2023/04/19 07:13:45;;;;;;;2.33;1.23;;;13.40;99.90;;;;;;5040110;28;20181;-70
2023/04/19 07:16:12;;;;;;;2.93;1.70;;;14.40;99.90;;;;;;5034156;28;20202;-69
2023/04/19 07:18:37;;;;;;;3.90;1.87;;;14.20;99.90;;;;;;5031974;28;20266;-69
2023/04/19 07:21:03;;;;;;;1.60;1.40;;;14.10;99.90;;;;;;5038304;28;20936;-68
2023/04/19 07:23:29;;;;;;;3.47;1.77;;;13.70;99.90;;;;;;5029413;28;20340;-68
2023/04/19 07:25:55;;;;;;;2.37;1.37;;;13.40;99.90;;;;;;5033868;28;20252;-68
2023/04/19 07:28:20;;;;;;;1.77;1.47;;;14.10;99.90;;;;;;5038428;28;20477;-68
2023/04/19 07:30:46;;;;;;;2.57;1.70;;;13.60;99.90;;;;;;5037727;28;20782;-68
2023/04/19 07:33:11;;;;;;;3.13;1.50;;;13.90;99.90;;;;;;5037840;28;20180;-68
2023/04/19 07:35:40;;;;;;;2.20;1.60;;;13.90;99.90;;;;;;5039837;28;20280;-69
2023/04/19 07:38:06;;;;;;;4.20;1.30;;;14.40;99.90;;;;;;5030118;28;20248;-69
2023/04/19 07:40:31;;;;;;;2.27;1.20;;;15.10;99.90;;;;;;5038739;28;20830;-69
2023/04/19 07:42:57;;;;;;;4.00;1.83;;;15.70;99.90;;;;;;5040775;28;20189;-68
2023/04/19 07:45:23;;;;;;;3.40;1.50;;;15.50;98.40;;;;;;5039225;28;20590;-67
2023/04/19 07:47:48;;;;;;;2.23;1.73;;;15.10;97.10;;;;;;5045370;28;20269;-69
2023/04/19 07:50:14;;;;;;;2.23;2.03;;;14.00;98.80;;;;;;5045502;28;20295;-68
2023/04/19 07:52:40;;;;;;;3.37;1.50;;;14.90;98.90;;;;;;5051074;28;20593;-70
2023/04/19 07:55:06;;;;;;;4.73;1.90;;;15.70;97.80;;;;;;5039086;28;20493;-70
2023/04/19 07:57:33;;;;;;;1.70;1.33;;;15.70;96.50;;;;;;5046212;28;20185;-69
2023/04/19 07:59:59;;;;;;;3.77;1.50;;;16.20;95.10;;;;;;5048121;28;20449;-69
2023/04/19 08:02:26;;;;;;;3.40;1.90;;;16.10;95.30;;;;;;5044309;28;20401;-69
2023/04/19 08:04:52;;;;;;;4.30;1.67;;;15.40;95.00;;;;;;5047655;28;20190;-68
2023/04/19 08:07:17;;;;;;;5.03;2.07;;;15.20;94.50;;;;;;5024528;28;20917;-68
2023/04/19 08:09:43;;;;;;;3.70;1.93;;;15.50;95.10;;;;;;5047269;28;20217;-68
2023/04/19 08:12:09;;;;;;;2.63;1.60;;;15.40;93.60;;;;;;5023980;28;20241;-68
2023/04/19 08:14:34;;;;;;;6.77;1.90;;;15.40;94.10;;;;;;5038853;28;20175;-68
2023/04/19 08:17:00;;;;;;;1.97;1.87;;;15.50;93.10;;;;;;5047381;28;20671;-69
2023/04/19 08:19:25;;;;;;;3.30;1.73;;;15.10;92.40;;;;;;5044005;28;20198;-69
2023/04/19 08:21:51;;;;;;;2.53;1.77;;;14.80;93.40;;;;;;5046362;28;20175;-69
2023/04/19 08:24:17;;;;;;;2.50;1.70;;;15.00;92.50;;;;;;5042428;28;20263;-68
2023/04/19 08:26:42;;;;;;;3.17;1.90;;;14.90;91.80;;;;;;5050084;28;20186;-68
2023/04/19 08:29:08;;;;;;;2.63;1.80;;;14.50;93.10;;;;;;5041489;28;20180;-69
2023/04/19 08:31:34;;;;;;;3.27;2.40;;;14.60;92.90;;;;;;5038897;28;20176;-69
2023/04/19 08:33:59;;;;;;;2.77;1.90;;;15.20;91.70;;;;;;5046731;28;20557;-68
2023/04/19 08:36:29;;;;;;;1.77;1.67;;;15.00;91.90;;;;;;5036412;28;20203;-67
2023/04/19 08:38:54;;;;;;;5.07;1.73;;;15.00;91.40;;;;;;5032599;28;20263;-69
2023/04/19 08:41:22;;;;;;;3.00;1.80;;;15.60;91.80;;;;;;5040762;28;20455;-68
2023/04/19 08:43:50;;;;;;;2.13;1.73;;;15.50;91.40;;;;;;5039374;28;20180;-67
2023/04/19 08:46:16;;;;;;;7.00;2.00;;;14.60;91.70;;;;;;5041835;28;20440;-69
2023/04/19 08:48:43;;;;;;;1.83;1.67;;;14.10;91.40;;;;;;5040705;28;20538;-68
2023/04/19 08:51:12;;;;;;;2.60;1.90;;;13.70;91.60;;;;;;5041664;28;20453;-69
2023/04/19 08:53:39;;;;;;;3.10;2.30;;;13.30;92.30;;;;;;5041511;28;20412;-68
2023/04/19 08:56:06;;;;;;;3.80;2.20;;;13.20;92.80;;;;;;5034010;28;20858;-68
2023/04/19 08:58:32;;;;;;;3.80;2.60;;;13.10;93.30;;;;;;5040768;28;20493;-70
2023/04/19 09:00:58;;;;;;;8.17;2.27;;;13.30;93.60;;;;;;5046083;28;20434;-70
2023/04/19 09:03:24;;;;;;;2.80;2.20;;;13.10;92.80;;;;;;5031811;28;20171;-69
2023/04/19 09:05:50;;;;;;;2.90;2.20;;;12.70;93.50;;;;;;5042893;28;20453;-69
2023/04/19 09:08:30;;;;;;;4.83;2.40;;;12.30;93.50;;;;;;5041694;28;20449;-69
2023/04/19 09:11:01;;;;;;;4.20;2.37;;;12.20;94.10;;;;;;5041202;28;20226;-68
2023/04/19 09:13:28;;;;;;;2.23;1.90;;;12.60;94.40;;;;;;5029697;28;20448;-70
2023/04/19 09:15:55;;;;;;;3.70;2.20;;;13.00;93.90;;;;;;5047292;28;20823;-69
2023/04/19 09:18:23;;;;;;;3.70;2.47;;;13.70;93.70;;;;;;5041946;28;20427;-69
2023/04/19 09:20:55;;;;;;;3.47;2.57;;;13.80;91.60;;;;;;5048098;28;20531;-69
2023/04/19 09:23:24;;;;;;;2.40;2.03;;;13.70;91.50;;;;;;5047809;28;20741;-69
2023/04/19 09:25:52;;;;;;;3.17;2.47;;;13.90;91.30;;;;;;5048541;28;20423;-68
2023/04/19 09:28:18;;;;;;;4.90;1.97;;;14.20;91.00;;;;;;5046396;28;20476;-70
2023/04/19 09:30:44;;;;;;;4.00;2.10;;;14.00;92.00;;;;;;5047530;28;20443;-69
2023/04/19 09:33:09;;;;;;;4.50;2.10;;;14.10;91.30;;;;;;5041694;28;20423;-70
2023/04/19 09:35:48;;;;;;;3.50;2.17;;;13.50;91.80;;;;;;5039862;28;20204;-70
2023/04/19 09:38:14;;;;;;;2.63;2.30;;;13.10;92.10;;;;;;5043208;28;20178;-70
2023/04/19 09:40:40;;;;;;;3.13;2.47;;;12.60;92.60;;;;;;5041551;28;20422;-70
2023/04/19 09:43:07;;;;;;;3.97;2.43;;;12.90;93.40;;;;;;5045356;28;20909;-70
2023/04/19 09:45:43;;;;;;;3.03;2.57;;;13.00;92.40;;;;;;5046890;28;20425;-70
2023/04/19 09:48:10;;;;;;;4.60;2.80;;;13.10;92.00;;;;;;5036493;28;20416;-69
2023/04/19 09:50:53;;;;;;;3.70;2.37;;;13.40;92.00;;;;;;5038482;28;20448;-70
2023/04/19 09:53:19;;;;;;;3.37;2.40;;;13.60;92.00;;;;;;5036455;28;20950;-70
2023/04/19 09:55:48;;;;;;;4.13;2.73;;;13.00;92.00;;;;;;5042958;28;20461;-70
2023/04/19 09:58:15;;;;;;;3.43;2.67;;;12.70;92.20;;;;;;5045858;28;20916;-68
2023/04/19 10:00:42;;;;;;;5.37;2.53;;;12.40;92.70;;;;;;5043426;28;20492;-69
2023/04/19 10:03:09;;;;;;;3.97;2.40;;;12.60;92.70;;;;;;5051845;28;20420;-69
2023/04/19 10:05:39;;;;;;;2.43;1.90;;;12.50;93.10;;;;;;5047725;28;20424;-70
2023/04/19 10:08:09;;;;;;;4.03;2.60;;;12.50;92.90;;;;;;5053669;28;20443;-69
2023/04/19 10:10:36;;;;;;;3.57;3.20;;;12.80;93.10;;;;;;5045591;28;20442;-69
2023/04/19 10:13:04;;;;;;;4.23;2.07;;;12.70;92.60;;;;;;5044815;28;20547;-67
2023/04/19 10:15:31;;;;;;;3.87;2.47;;;12.70;92.80;;;;;;5045859;28;20512;-69
2023/04/19 10:17:57;;;;;;;5.20;3.13;;;12.70;92.50;;;;;;5039153;28;20410;-69
2023/04/19 10:20:29;;;;;;;3.93;2.83;;;12.70;92.70;;;;;;5044261;28;20487;-67
2023/04/19 10:22:55;;;;;;;2.73;2.50;;;12.80;93.10;;;;;;5045731;28;20167;-71
2023/04/19 10:25:28;;;;;;;3.00;2.00;;;12.50;93.10;;;;;;5045412;28;20421;-68
2023/04/19 10:27:54;;;;;;;4.57;2.53;;;12.20;93.40;;;;;;5043924;28;20195;-68
2023/04/19 10:30:21;;;;;;;3.03;2.30;;;12.60;93.70;;;;;;5050046;28;20566;-68
2023/04/19 10:32:58;;;;;;;3.63;2.20;;;12.40;93.30;;;;;;5042488;28;20171;-68
2023/04/19 10:35:28;;;;;;;5.07;3.10;;;12.10;93.60;;;;;;5042972;28;20499;-67
2023/04/19 10:38:07;;;;;;;10.83;3.67;;;12.20;93.90;;;;;;5043269;28;20449;-71
2023/04/19 10:40:59;;;;;;;5.80;3.07;;;12.20;93.40;;;;;;5047396;28;20428;-67
2023/04/19 10:43:33;;;;;;;3.23;2.57;;;12.00;94.10;;;;;;5037821;28;20421;-68
2023/04/19 10:46:07;;;;;;;2.50;2.27;;;12.20;94.10;;;;;;5044117;28;20417;-70
2023/04/19 10:48:38;;;;;;;6.37;3.30;;;12.20;93.30;;;;;;5045204;28;20414;-66
2023/04/19 10:51:21;;;;;;;5.13;2.83;;;12.30;93.80;;;;;;5044881;28;20474;-68
2023/04/19 10:53:56;;;;;;;2.83;2.20;;;12.60;93.60;;;;;;5042658;28;20567;-67
2023/04/19 10:57:01;;;;;;;3.50;2.77;;;12.50;93.50;;;;;;5044158;28;20453;-70
2023/04/19 10:59:37;;;;;;;3.13;2.83;;;12.50;93.90;;;;;;5027898;28;20458;-67
2023/04/19 11:02:21;;;;;;;4.07;2.40;;;12.50;93.60;;;;;;5022953;28;20436;-69
2023/04/19 11:04:50;;;;;;;3.40;2.77;;;12.60;93.60;;;;;;5029668;28;20514;-68
2023/04/19 11:07:17;;;;;;;6.17;2.43;;;12.70;94.30;;;;;;5035891;28;20848;-67
2023/04/19 11:09:47;;;;;;;4.03;2.70;;;12.90;94.30;;;;;;5002249;28;20468;-68
2023/04/19 11:12:14;;;;;;;3.57;2.30;;;12.80;94.10;;;;;;5013973;28;20526;-69
2023/04/19 11:14:42;;;;;;;5.40;2.80;;;12.80;94.60;;;;;;5024952;28;20443;-70
2023/04/19 11:17:43;;;;;;;4.93;3.00;;;12.70;94.20;;;;;;5033625;28;20557;-70
2023/04/19 11:20:10;;;;;;;5.97;3.03;;;12.50;94.20;;;;;;4926334;29;20451;-68
2023/04/19 11:22:40;;;;;;;4.00;2.50;;;12.90;94.70;;;;;;5004827;28;20448;-69
2023/04/19 11:25:10;;;;;;;3.03;2.63;;;13.10;94.10;;;;;;5028588;28;20440;-69
2023/04/19 11:27:37;;;;;;;5.53;2.47;;;12.90;94.20;;;;;;5043277;28;20442;-69
2023/04/19 11:30:11;;;;;;;3.90;2.40;;;12.90;93.80;;;;;;5042980;28;20503;-69
2023/04/19 11:32:37;;;;;;;4.27;2.80;;;13.20;93.90;;;;;;5029310;28;20439;-69
2023/04/19 11:35:07;;;;;;;3.90;2.70;;;13.20;93.40;;;;;;5041979;28;20930;-70
2023/04/19 11:37:37;;;;;;;2.70;2.47;;;12.90;93.10;;;;;;5040968;28;20417;-70
2023/04/19 11:40:05;;;;;;;4.37;2.90;;;12.70;93.30;;;;;;5037567;28;20422;-68
2023/04/19 11:42:31;;;;;;;5.50;5.00;;;12.70;93.80;;;;;;5044931;28;20414;-72
2023/04/19 11:44:58;;;;;;;4.50;2.07;;;12.80;94.50;;;;;;5026380;28;20493;-68
2023/04/19 11:47:25;;;;;;;3.00;2.27;;;12.80;94.20;;;;;;5038308;28;20427;-68
2023/04/19 11:49:51;;;;;;;2.80;2.57;;;12.70;93.90;;;;;;5034636;28;20990;-68
2023/04/19 11:52:22;;;;;;;6.63;2.83;;;12.50;93.30;;;;;;5041296;28;20417;-69
2023/04/19 11:54:48;;;;;;;3.20;2.30;;;12.50;92.70;;;;;;5041095;28;20803;-69
2023/04/19 11:57:14;;;;;;;7.90;2.90;;;12.50;93.50;;;;;;5038842;28;20454;-69
2023/04/19 12:00:04;;;;;;;6.00;2.37;;;12.40;94.40;;;;;;5041209;28;20583;-69
2023/04/19 12:02:30;;;;;;;3.00;2.20;;;12.50;94.50;;;;;;5036224;28;20407;-68
2023/04/19 12:05:05;;;;;;;3.03;2.57;;;12.80;94.50;;;;;;5029287;28;21044;-69
2023/04/19 12:07:30;;;;;;;4.30;2.50;;;12.90;94.00;;;;;;5036897;28;20704;-70
2023/04/19 12:10:09;;;;;;;4.00;2.30;;;13.20;93.80;;;;;;5044596;28;20425;-70
2023/04/19 12:12:34;;;;;;;3.47;2.50;;;13.30;93.60;;;;;;5038711;28;20649;-69
2023/04/19 12:15:00;;;;;;;5.17;2.87;;;13.00;93.30;;;;;;5029839;28;20421;-68
2023/04/19 12:17:26;;;;;;;3.83;2.63;;;13.10;93.30;;;;;;5021686;28;20207;-70
2023/04/19 12:19:52;;;;;;;3.87;2.07;;;13.00;92.70;;;;;;5034647;28;20277;-69
2023/04/19 12:22:23;;;;;;;3.00;2.70;;;12.90;92.90;;;;;;5029415;28;20175;-70
2023/04/19 12:24:52;;;;;;;4.07;2.80;;;12.90;92.90;;;;;;5032476;28;20306;-69
2023/04/19 12:27:18;;;;;;;6.40;2.60;;;12.80;93.00;;;;;;5028975;28;20492;-69
2023/04/19 12:29:44;;;;;;;3.87;2.20;;;13.00;93.50;;;;;;5006372;28;20458;-70
2023/04/19 12:32:10;;;;;;;4.30;2.70;;;13.10;93.40;;;;;;5019473;28;20443;-70
2023/04/19 12:34:36;;;;;;;3.33;2.60;;;13.00;93.20;;;;;;5033848;28;20764;-69
2023/04/19 12:37:04;;;;;;;4.30;2.63;;;12.80;93.30;;;;;;5039429;28;20300;-69
2023/04/19 12:39:30;;;;;;;3.63;3.33;;;12.70;92.90;;;;;;5034937;28;20215;-70
2023/04/19 12:41:56;;;;;;;3.90;2.57;;;12.70;92.80;;;;;;5038553;28;20469;-69
2023/04/19 12:44:22;;;;;;;8.30;3.37;;;12.50;92.90;;;;;;5031914;28;20171;-69
2023/04/19 12:46:48;;;;;;;6.87;2.93;;;12.60;93.80;;;;;;5038564;28;20414;-69
2023/04/19 12:49:16;;;;;;;4.60;3.03;;;12.70;94.40;;;;;;5040919;28;20409;-69
2023/04/19 12:51:42;;;;;;;4.20;3.03;;;12.90;94.80;;;;;;5040945;28;20434;-69